ALXO2: Washita River, Alex, OK

Data processed at Sun Sep 23 2018 22:02


All information presented herein is the property of the government of the United States of America and may be revised or deleted at any time without prior notice.
Dissemination of this information without the expressed written consent of the Public Affairs Office, Tulsa District U.S. Army Corps of Engineers is strictly prohibited.
These data are gathered electronically and, as presented, have not undergone any form of quality control. These data are not guaranteed to be valid or correct.
Go to home page.
Go to station list.
Go to home page.

Upstream stations:

Downstream station:
Previous Day
Next Day
Current Day
    
SHEF ID:       ALXO2     Washita River at Alex, OK
STATION TYPE:  

               PRECIP     STAGE  RIV-FLOW  BAT-LOAD
                   in        ft       cfs      volt
              Ccp-Rev   Ccp-Rev   Ccp-Rev   Ccp-Rev
(US/Central)
09/23 00:00      0.00      4.33      1793     12.41
09/23 01:00      0.00      4.27      1756     12.41
09/23 02:00      0.00      4.18      1702     12.33
09/23 03:00      0.00      4.09      1648     12.17
09/23 04:00      0.00      4.01      1600     11.77
09/23 05:00      0.00      3.93      1553     12.25
09/23 06:00      0.00      3.86      1512     12.25
09/23 07:00      0.00      3.80      1477     12.25
09/23 08:00      0.00      3.74      1443     12.25
09/23 09:00      0.00      3.68      1409     12.25
09/23 10:00      0.00      3.64      1386     12.17
09/23 11:00      0.00      3.59      1358     12.25
09/23 12:00      0.00      3.55      1336     12.33
09/23 13:00      0.00      3.50      1308     12.57
09/23 14:00      0.00      3.46      1286     12.25
09/23 15:00      0.00      3.42      1264     12.65
09/23 16:00      0.00      3.38      1242     12.65
09/23 17:00      0.00      3.34      1220     12.57
09/23 18:00      0.00      3.30      1198     12.25
09/23 19:00      0.00      3.26      1176     12.57
09/23 20:00      0.00      3.23      1160     11.37
09/23 21:00      0.00      3.19      1138     12.33
09/23 22:00      ----      ----      ----      ----
09/23 23:00      ----      ----      ----      ----